PILOTS ONLINE: 559    ATC ONLINE: 89

KCDC - Cedar City Regional Airport

Location

IATA CDC
City Cedar City
Country  United States
Latitude 37° 42' 3" N
Longitude 113° 5' 56" W
Elevation 5622 ft
Type Medium Airport

Runways

02/20 8653 ft / 150 ft
08/26 4822 ft / 60 ft

Weather

METAR
2014/07/26 12:53
KCDC 261253Z AUTO 12004KT 10SM CLR 19/09 A3021 RMK AO2 SLP146 T01940094
TAF
2014/07/26 12:24
TAF KCDC 261120Z 2612/2712 20009KT P6SM SCT080 SCT120 
     FM262000 22010KT P6SM VCSH SCT080 BKN150 
     FM270300 14004KT P6SM SCT080 BKN150

Outbound flights

Inbound flights